createdAt,value
2018-05-02T00:01:00.577Z,7.37
2018-05-02T00:03:27.279Z,7.30
2018-05-02T00:05:53.964Z,7.93
2018-05-02T00:08:20.691Z,7.10
2018-05-02T00:10:47.415Z,7.27
2018-05-02T00:13:14.092Z,7.87
2018-05-02T00:15:40.812Z,7.40
2018-05-02T00:18:07.547Z,7.23
2018-05-02T00:20:34.279Z,6.97
2018-05-02T00:23:01.128Z,7.40
2018-05-02T00:25:27.807Z,7.20
2018-05-02T00:27:54.503Z,7.50
2018-05-02T00:30:21.190Z,8.43
2018-05-02T00:32:47.891Z,8.33
2018-05-02T00:35:14.564Z,7.43
2018-05-02T00:37:41.271Z,7.17
2018-05-02T00:40:07.982Z,8.13
2018-05-02T00:42:34.723Z,8.40
2018-05-02T00:45:01.447Z,8.00
2018-05-02T00:47:28.124Z,7.60
2018-05-02T00:49:54.819Z,7.77
2018-05-02T00:52:21.525Z,8.10
2018-05-02T00:54:48.227Z,8.20
2018-05-02T00:57:14.900Z,8.70
2018-05-02T00:59:41.595Z,7.73
2018-05-02T01:02:08.266Z,7.90
2018-05-02T01:04:34.956Z,8.77
2018-05-02T01:07:01.633Z,8.00
2018-05-02T01:09:28.331Z,8.77
2018-05-02T01:11:55.215Z,7.73
2018-05-02T01:14:21.896Z,7.30
2018-05-02T01:16:48.574Z,8.07
2018-05-02T01:19:15.276Z,7.77
2018-05-02T01:21:41.952Z,7.73
2018-05-02T01:24:08.651Z,7.40
2018-05-02T01:26:35.359Z,7.43
2018-05-02T01:29:02.204Z,9.27
2018-05-02T01:31:28.906Z,8.60
2018-05-02T01:33:55.609Z,8.33
2018-05-02T01:36:22.357Z,8.10
2018-05-02T01:38:49.055Z,7.90
2018-05-02T01:41:15.732Z,8.00
2018-05-02T01:43:42.512Z,7.50
2018-05-02T01:46:09.125Z,7.50
2018-05-02T01:48:35.807Z,7.77
2018-05-02T01:51:02.508Z,7.77
2018-05-02T01:53:29.213Z,7.50
2018-05-02T01:55:55.904Z,8.13
2018-05-02T01:58:22.578Z,8.17
2018-05-02T02:00:49.268Z,8.30
2018-05-02T02:03:16.126Z,7.17
2018-05-02T02:05:42.816Z,7.73
2018-05-02T02:08:09.500Z,6.70
2018-05-02T02:10:36.191Z,8.40
2018-05-02T02:13:02.864Z,8.67
2018-05-02T02:15:29.548Z,8.63
2018-05-02T02:17:56.235Z,8.77
2018-05-02T02:20:23.010Z,8.27
2018-05-02T02:22:49.731Z,9.17
2018-05-02T02:25:16.424Z,9.93
2018-05-02T02:27:43.132Z,9.00
2018-05-02T02:30:09.996Z,9.37
2018-05-02T02:32:36.671Z,8.60
2018-05-02T02:35:03.377Z,8.57
2018-05-02T02:37:30.052Z,9.17
2018-05-02T02:39:56.742Z,7.80
2018-05-02T02:42:23.443Z,8.87
2018-05-02T02:44:50.148Z,8.00
2018-05-02T02:47:16.836Z,8.43
2018-05-02T02:49:43.548Z,8.40
2018-05-02T02:52:10.252Z,7.87
2018-05-02T02:54:36.932Z,7.83
2018-05-02T02:57:03.630Z,8.93
2018-05-02T02:59:30.456Z,8.80
2018-05-02T03:01:57.140Z,9.57
2018-05-02T03:04:23.868Z,10.10
2018-05-02T03:06:50.540Z,7.70
2018-05-02T03:09:17.235Z,8.13
2018-05-02T03:11:43.929Z,7.70
2018-05-02T03:14:10.672Z,8.73
2018-05-02T03:16:37.371Z,8.43
2018-05-02T03:19:04.052Z,8.33
2018-05-02T03:21:30.763Z,8.20
2018-05-02T03:23:57.463Z,7.50
2018-05-02T03:26:24.178Z,7.90
2018-05-02T03:28:50.891Z,9.37
2018-05-02T03:31:17.596Z,7.70
2018-05-02T03:33:44.284Z,8.50
2018-05-02T03:36:10.980Z,9.20
2018-05-02T03:38:37.695Z,7.90
2018-05-02T03:41:04.606Z,8.90
2018-05-02T03:43:31.275Z,8.50
2018-05-02T03:45:57.964Z,7.77
2018-05-02T03:48:24.717Z,8.13
2018-05-02T03:50:51.398Z,7.33
2018-05-02T03:53:18.087Z,8.17
2018-05-02T03:55:44.760Z,7.10
2018-05-02T03:58:11.444Z,6.50
2018-05-02T04:00:43.956Z,8.50
2018-05-02T04:03:16.508Z,8.73
2018-05-02T04:05:49.036Z,8.60
2018-05-02T04:08:15.702Z,10.53
2018-05-02T04:10:42.407Z,10.40
2018-05-02T04:13:09.228Z,9.07
2018-05-02T04:15:35.904Z,8.97
2018-05-02T04:18:02.619Z,8.63
2018-05-02T04:20:29.299Z,8.30
2018-05-02T04:22:56.064Z,8.23
2018-05-02T04:25:22.768Z,7.87
2018-05-02T04:27:49.455Z,8.33
2018-05-02T04:30:16.148Z,8.63
2018-05-02T04:32:42.879Z,9.07
2018-05-02T04:35:09.579Z,8.70
2018-05-02T04:37:36.280Z,8.47
2018-05-02T04:40:02.980Z,8.10
2018-05-02T04:42:29.680Z,8.90
2018-05-02T04:44:56.391Z,8.63
2018-05-02T04:47:23.063Z,9.50
2018-05-02T04:49:49.739Z,8.87
2018-05-02T04:52:16.456Z,8.57
2018-05-02T04:54:43.147Z,10.17
2018-05-02T04:57:09.860Z,9.20
2018-05-02T04:59:36.657Z,8.80
2018-05-02T05:02:03.293Z,8.80
2018-05-02T05:04:30.042Z,7.80
2018-05-02T05:06:56.718Z,7.60
2018-05-02T05:09:23.426Z,8.83
2018-05-02T05:11:50.108Z,8.60
2018-05-02T05:14:16.855Z,8.87
2018-05-02T05:16:43.528Z,9.70
2018-05-02T05:19:10.225Z,9.23
2018-05-02T05:21:36.904Z,9.17
2018-05-02T05:24:03.740Z,8.50
2018-05-02T05:26:30.448Z,8.53
2018-05-02T05:28:57.131Z,9.43
2018-05-02T05:31:23.860Z,8.37
2018-05-02T05:33:50.542Z,9.00
2018-05-02T05:36:17.398Z,10.30
2018-05-02T05:38:44.083Z,9.33
2018-05-02T05:41:11.635Z,8.63
2018-05-02T05:43:38.357Z,9.40
2018-05-02T05:46:05.004Z,9.50
2018-05-02T05:48:31.865Z,9.20
2018-05-02T05:50:58.542Z,8.50
2018-05-02T05:53:25.383Z,9.33
2018-05-02T05:55:52.144Z,9.20
2018-05-02T05:58:18.777Z,9.40
2018-05-02T06:00:45.508Z,9.60
2018-05-02T06:03:12.159Z,8.80
2018-05-02T06:05:38.855Z,9.07
2018-05-02T06:08:05.675Z,9.10
2018-05-02T06:10:32.367Z,9.40
2018-05-02T06:12:59.063Z,8.77
2018-05-02T06:15:25.745Z,8.30
2018-05-02T06:17:52.442Z,9.50
2018-05-02T06:20:19.123Z,8.70
2018-05-02T06:22:45.972Z,9.70
2018-05-02T06:25:12.792Z,8.70
2018-05-02T06:27:39.536Z,9.33
2018-05-02T06:30:06.240Z,9.33
2018-05-02T06:32:32.930Z,9.37
2018-05-02T06:34:59.676Z,9.17
2018-05-02T06:37:26.349Z,8.70
2018-05-02T06:39:53.235Z,8.73
2018-05-02T06:42:19.908Z,9.80
2018-05-02T06:44:46.610Z,8.30
2018-05-02T06:47:13.330Z,8.50
2018-05-02T06:49:40.032Z,9.50
2018-05-02T06:52:06.708Z,8.63
2018-05-02T06:54:33.481Z,10.47
2018-05-02T06:57:00.147Z,8.60
2018-05-02T06:59:26.844Z,9.03
2018-05-02T07:01:53.568Z,9.20
2018-05-02T07:04:21.170Z,7.10
2018-05-02T07:06:47.912Z,9.50
2018-05-02T07:09:14.597Z,8.40
2018-05-02T07:11:41.296Z,8.40
2018-05-02T07:14:07.990Z,8.70
2018-05-02T07:16:34.659Z,8.00
2018-05-02T07:19:01.347Z,8.33
2018-05-02T07:21:28.040Z,8.67
2018-05-02T07:23:54.791Z,8.20
2018-05-02T07:26:21.468Z,8.00
2018-05-02T07:28:48.161Z,7.10
2018-05-02T07:31:14.831Z,7.87
2018-05-02T07:33:41.531Z,7.50
2018-05-02T07:36:08.220Z,8.20
2018-05-02T07:38:34.923Z,7.03
2018-05-02T07:41:01.623Z,7.30
2018-05-02T07:43:28.335Z,6.90
2018-05-02T07:45:55.044Z,7.07
2018-05-02T07:48:21.728Z,7.47
2018-05-02T07:50:48.452Z,6.60
2018-05-02T07:53:15.156Z,6.90
2018-05-02T07:55:41.872Z,7.10
2018-05-02T07:58:08.546Z,8.13
2018-05-02T08:00:35.236Z,6.77
2018-05-02T08:03:01.944Z,5.50
2018-05-02T08:05:28.632Z,5.80
2018-05-02T08:07:55.356Z,5.87
2018-05-02T08:10:22.048Z,5.80
2018-05-02T08:12:48.744Z,5.80
2018-05-02T08:15:15.545Z,4.87
2018-05-02T08:17:42.244Z,5.83
2018-05-02T08:20:08.928Z,5.70
2018-05-02T08:22:35.759Z,6.50
2018-05-02T08:25:02.603Z,5.30
2018-05-02T08:27:29.277Z,5.87
2018-05-02T08:29:56.116Z,5.33
2018-05-02T08:32:22.807Z,5.33
2018-05-02T08:34:49.517Z,6.60
2018-05-02T08:37:16.191Z,5.77
2018-05-02T08:39:42.863Z,5.80
2018-05-02T08:42:09.563Z,6.27
2018-05-02T08:44:36.246Z,6.63
2018-05-02T08:47:02.956Z,5.73
2018-05-02T08:49:29.792Z,5.00
2018-05-02T08:51:56.471Z,4.40
2018-05-02T08:54:23.161Z,4.30
2018-05-02T08:56:49.871Z,3.97
2018-05-02T08:59:16.572Z,4.17
2018-05-02T09:01:43.341Z,4.50
2018-05-02T09:04:09.968Z,4.40
2018-05-02T09:06:36.772Z,3.63
2018-05-02T09:09:03.436Z,3.40
2018-05-02T09:11:30.277Z,2.10
2018-05-02T09:13:56.960Z,2.00
2018-05-02T09:16:23.779Z,2.50
2018-05-02T09:18:50.463Z,2.40
2018-05-02T09:21:17.172Z,2.10
2018-05-02T09:23:43.852Z,2.33
2018-05-02T09:26:10.552Z,2.83
2018-05-02T09:28:37.219Z,2.30
2018-05-02T09:31:03.896Z,2.63
2018-05-02T09:33:30.585Z,3.13
2018-05-02T09:35:57.446Z,2.70
2018-05-02T09:38:24.142Z,2.80
2018-05-02T09:40:50.828Z,3.03
2018-05-02T09:43:17.517Z,2.93
2018-05-02T09:45:44.202Z,3.13
2018-05-02T09:48:10.909Z,2.83
2018-05-02T09:50:37.589Z,3.57
2018-05-02T09:53:04.293Z,3.07
2018-05-02T09:55:31.127Z,3.67
2018-05-02T09:57:58.010Z,3.07
2018-05-02T10:00:24.800Z,3.03
2018-05-02T10:02:51.684Z,2.90
2018-05-02T10:05:18.383Z,2.47
2018-05-02T10:07:45.061Z,3.47
2018-05-02T10:10:11.766Z,4.17
2018-05-02T10:12:38.478Z,3.70
2018-05-02T10:15:05.192Z,3.77
2018-05-02T10:17:31.905Z,3.67
2018-05-02T10:19:58.579Z,3.57
2018-05-02T10:22:25.259Z,3.80
2018-05-02T10:24:52.056Z,3.73
2018-05-02T10:27:18.760Z,3.60
2018-05-02T10:29:45.635Z,4.37
2018-05-02T10:32:13.167Z,4.00
2018-05-02T10:34:39.839Z,4.67
2018-05-02T10:37:06.534Z,4.30
2018-05-02T10:39:33.251Z,4.10
2018-05-02T10:41:59.933Z,4.87
2018-05-02T10:44:26.628Z,4.80
2018-05-02T10:46:53.321Z,4.63
2018-05-02T10:49:19.992Z,4.17
2018-05-02T10:51:46.702Z,4.00
2018-05-02T10:54:13.392Z,3.97
2018-05-02T10:56:40.089Z,3.50
2018-05-02T10:59:06.803Z,3.67
2018-05-02T11:01:33.488Z,3.47
2018-05-02T11:04:00.165Z,3.47
2018-05-02T11:06:27.015Z,3.20
2018-05-02T11:08:53.697Z,3.73
2018-05-02T11:11:20.478Z,4.00
2018-05-02T11:13:47.197Z,3.93
2018-05-02T11:16:14.041Z,3.87
2018-05-02T11:18:40.789Z,3.40
2018-05-02T11:21:07.660Z,2.93
2018-05-02T11:23:34.356Z,2.97
2018-05-02T11:26:01.040Z,3.10
2018-05-02T11:28:27.761Z,2.57
2018-05-02T11:30:54.420Z,2.27
2018-05-02T11:33:21.209Z,2.33
2018-05-02T11:35:47.905Z,2.40
2018-05-02T11:38:14.583Z,1.80
2018-05-02T11:40:41.286Z,2.40
2018-05-02T11:43:07.976Z,2.30
2018-05-02T11:45:34.674Z,2.13
2018-05-02T11:48:02.125Z,2.00
2018-05-02T11:50:28.953Z,2.47
2018-05-02T11:52:55.657Z,2.30
2018-05-02T11:55:22.350Z,2.30
2018-05-02T11:57:49.030Z,2.10
2018-05-02T12:00:15.723Z,1.80
2018-05-02T12:02:42.598Z,2.30
2018-05-02T12:05:09.169Z,2.03
2018-05-02T12:07:35.888Z,1.97
2018-05-02T12:10:02.588Z,2.43
2018-05-02T12:12:29.273Z,1.53
2018-05-02T12:14:55.988Z,2.33
2018-05-02T12:17:22.668Z,2.30
2018-05-02T12:22:22.610Z,1.90
2018-05-02T12:24:49.297Z,1.87
2018-05-02T12:27:15.979Z,1.97
2018-05-02T12:29:42.688Z,2.00
2018-05-02T12:32:09.393Z,2.03
2018-05-02T12:34:36.096Z,2.33
2018-05-02T12:37:02.779Z,2.80
2018-05-02T12:39:29.489Z,2.33
2018-05-02T12:41:56.172Z,2.40
2018-05-02T12:44:22.879Z,2.30
2018-05-02T12:46:49.606Z,2.13
2018-05-02T12:49:16.360Z,2.80
2018-05-02T12:51:43.068Z,3.00
2018-05-02T12:54:09.771Z,2.63
2018-05-02T12:56:36.459Z,3.23
2018-05-02T12:59:03.149Z,2.77
2018-05-02T13:01:29.916Z,2.93
2018-05-02T13:03:56.619Z,2.27
2018-05-02T13:06:23.312Z,2.90
2018-05-02T13:08:50.056Z,3.20
2018-05-02T13:11:16.800Z,2.70
2018-05-02T13:13:43.495Z,2.90
2018-05-02T13:16:10.171Z,2.30
2018-05-02T13:18:36.874Z,2.43
2018-05-02T13:21:03.544Z,2.63
2018-05-02T13:23:30.346Z,3.00
2018-05-02T13:25:56.949Z,2.83
2018-05-02T13:28:23.648Z,2.67
2018-05-02T13:30:50.391Z,3.30
2018-05-02T13:33:17.136Z,2.10
2018-05-02T13:35:43.884Z,2.37
2018-05-02T13:38:10.575Z,2.50
2018-05-02T13:40:37.282Z,2.40
2018-05-02T13:43:03.957Z,2.80
2018-05-02T13:45:30.676Z,2.47
2018-05-02T13:47:57.355Z,3.13
2018-05-02T13:50:24.048Z,2.30
2018-05-02T13:52:50.768Z,2.60
2018-05-02T13:55:17.462Z,2.60
2018-05-02T13:57:44.174Z,2.40
2018-05-02T14:00:10.831Z,2.50
2018-05-02T14:02:37.644Z,2.20
2018-05-02T14:05:04.402Z,2.20
2018-05-02T14:07:31.108Z,2.13
2018-05-02T14:09:57.832Z,2.67
2018-05-02T14:12:24.515Z,1.90
2018-05-02T14:14:51.192Z,2.40
2018-05-02T14:17:17.880Z,2.30
2018-05-02T14:19:44.648Z,2.10
2018-05-02T14:22:11.321Z,1.80
2018-05-02T14:24:38.253Z,1.60
2018-05-02T14:27:04.843Z,1.90
2018-05-02T14:29:31.519Z,1.70
2018-05-02T14:31:58.234Z,1.90
2018-05-02T14:34:24.917Z,1.60
2018-05-02T14:36:51.620Z,1.97
2018-05-02T14:39:18.308Z,2.10
2018-05-02T14:41:45.177Z,1.63
2018-05-02T14:44:11.853Z,1.40
2018-05-02T14:46:38.551Z,1.60
2018-05-02T14:49:05.299Z,2.10
2018-05-02T14:51:31.975Z,1.77
2018-05-02T14:53:58.670Z,3.00
2018-05-02T14:56:25.352Z,2.20
2018-05-02T14:58:52.058Z,2.60
2018-05-02T15:01:18.829Z,2.80
2018-05-02T15:03:45.643Z,2.70
2018-05-02T15:06:12.325Z,2.70
2018-05-02T15:08:39.027Z,3.10
2018-05-02T15:11:05.769Z,3.10
2018-05-02T15:13:32.452Z,3.70
2018-05-02T15:15:59.147Z,2.83
2018-05-02T15:18:25.860Z,2.50
2018-05-02T15:20:52.622Z,3.20
2018-05-02T15:23:19.267Z,2.87
2018-05-02T15:25:45.983Z,2.63
2018-05-02T15:28:12.655Z,2.90
2018-05-02T15:30:39.377Z,3.00
2018-05-02T15:33:06.084Z,2.60
2018-05-02T15:35:32.781Z,2.53
2018-05-02T15:37:59.464Z,2.60
2018-05-02T15:40:26.359Z,2.57
2018-05-02T15:42:52.995Z,2.60
2018-05-02T15:45:19.696Z,2.50
2018-05-02T15:47:46.381Z,2.57
2018-05-02T15:50:13.075Z,2.30
2018-05-02T15:52:39.743Z,2.43
2018-05-02T15:55:06.461Z,2.17
2018-05-02T15:57:33.171Z,2.20
2018-05-02T15:59:59.888Z,1.90
2018-05-02T16:02:26.648Z,2.53
2018-05-02T16:04:53.372Z,1.63
2018-05-02T16:07:20.064Z,1.80
2018-05-02T16:09:46.772Z,1.90
2018-05-02T16:12:13.515Z,1.80
2018-05-02T16:14:40.209Z,1.80
2018-05-02T16:17:06.926Z,1.80
2018-05-02T16:19:33.609Z,1.97
2018-05-02T16:22:00.443Z,2.00
2018-05-02T16:24:27.157Z,2.53
2018-05-02T16:26:53.892Z,1.90
2018-05-02T16:29:20.676Z,2.53
2018-05-02T16:31:47.376Z,2.77
2018-05-02T16:34:14.217Z,1.90
2018-05-02T16:36:41.096Z,1.93
2018-05-02T16:39:07.838Z,2.20
2018-05-02T16:41:34.509Z,2.43
2018-05-02T16:44:01.214Z,2.10
2018-05-02T16:46:27.912Z,2.03
2018-05-02T16:48:54.603Z,2.10
2018-05-02T16:51:21.387Z,1.83
2018-05-02T16:53:48.088Z,1.60
2018-05-02T16:56:15.010Z,1.53
2018-05-02T16:58:41.711Z,1.90
2018-05-02T17:01:08.397Z,2.00
2018-05-02T17:03:35.331Z,3.53
2018-05-02T17:06:02.060Z,1.90
2018-05-02T17:08:28.882Z,1.53
2018-05-02T17:10:55.649Z,1.60
2018-05-02T17:13:22.339Z,1.97
2018-05-02T17:15:49.037Z,2.20
2018-05-02T17:18:15.750Z,1.77
2018-05-02T17:20:42.446Z,2.30
2018-05-02T17:23:09.137Z,1.60
2018-05-02T17:25:35.951Z,1.70
2018-05-02T17:28:02.632Z,1.67
2018-05-02T17:30:29.570Z,1.90
2018-05-02T17:32:56.237Z,2.13
2018-05-02T17:35:22.936Z,2.10
2018-05-02T17:37:49.631Z,1.60
2018-05-02T17:40:16.319Z,2.20
2018-05-02T17:42:43.024Z,3.23
2018-05-02T17:45:09.724Z,3.07
2018-05-02T17:47:36.413Z,3.37
2018-05-02T17:50:03.153Z,2.40
2018-05-02T17:52:29.943Z,1.83
2018-05-02T17:54:56.653Z,1.67
2018-05-02T17:57:23.399Z,1.87
2018-05-02T17:59:50.113Z,1.80
2018-05-02T18:02:16.811Z,2.30
2018-05-02T18:04:43.505Z,1.53
2018-05-02T18:07:10.246Z,2.40
2018-05-02T18:09:36.950Z,1.30
2018-05-02T18:12:03.647Z,1.70
2018-05-02T18:14:30.333Z,1.43
2018-05-02T18:16:57.051Z,1.63
2018-05-02T18:19:23.769Z,1.50
2018-05-02T18:21:50.498Z,1.97
2018-05-02T18:24:17.187Z,1.93
2018-05-02T18:26:43.898Z,2.00
2018-05-02T18:29:10.599Z,1.53
2018-05-02T18:31:37.329Z,2.20
2018-05-02T18:34:04.007Z,1.80
2018-05-02T18:36:30.888Z,1.80
2018-05-02T18:38:57.583Z,1.60
2018-05-02T18:41:24.305Z,2.03
2018-05-02T18:43:51.040Z,1.60
2018-05-02T18:46:17.754Z,1.50
2018-05-02T18:48:44.429Z,1.57
2018-05-02T18:51:11.137Z,1.30
2018-05-02T18:53:37.859Z,1.70
2018-05-02T18:56:04.571Z,1.80
2018-05-02T18:58:31.445Z,1.90
2018-05-02T19:00:58.134Z,1.80
2018-05-02T19:03:24.848Z,1.60
2018-05-02T19:05:51.607Z,1.40
2018-05-02T19:08:18.306Z,1.57
2018-05-02T19:10:45.070Z,1.53
2018-05-02T19:13:11.803Z,1.60
2018-05-02T19:15:38.548Z,1.57
2018-05-02T19:18:11.014Z,2.23
2018-05-02T19:20:37.705Z,2.03
2018-05-02T19:23:04.418Z,1.53
2018-05-02T19:25:37.530Z,1.33
2018-05-02T19:28:04.232Z,1.57
2018-05-02T19:30:30.958Z,1.53
2018-05-02T19:33:03.378Z,1.57
2018-05-02T19:35:30.146Z,1.60
2018-05-02T19:37:56.832Z,1.27
2018-05-02T19:40:29.308Z,1.83
2018-05-02T19:43:01.774Z,1.60
2018-05-02T19:45:28.478Z,1.67
2018-05-02T19:47:55.264Z,1.63
2018-05-02T19:50:21.944Z,1.73
2018-05-02T19:52:48.668Z,1.77
2018-05-02T19:55:15.401Z,1.50
2018-05-02T19:57:42.106Z,1.93
2018-05-02T20:00:14.775Z,1.90
2018-05-02T20:02:47.366Z,1.67
2018-05-02T20:05:14.100Z,1.80
2018-05-02T20:07:41.750Z,1.70
2018-05-02T20:10:14.187Z,2.33
2018-05-02T20:12:46.626Z,2.70
2018-05-02T20:15:13.386Z,2.13
2018-05-02T20:17:40.101Z,2.20
2018-05-02T20:20:06.799Z,2.00
2018-05-02T20:22:33.580Z,2.03
2018-05-02T20:25:00.300Z,2.20
2018-05-02T20:27:27.000Z,2.20
2018-05-02T20:29:53.719Z,2.27
2018-05-02T20:32:20.400Z,1.70
2018-05-02T20:34:47.092Z,2.10
2018-05-02T20:37:13.796Z,2.00
2018-05-02T20:39:40.485Z,2.63
2018-05-02T20:42:07.198Z,2.37
2018-05-02T20:44:33.879Z,1.87
2018-05-02T20:47:00.607Z,2.53
2018-05-02T20:49:27.375Z,2.23
2018-05-02T20:51:54.057Z,2.10
2018-05-02T20:54:20.872Z,2.60
2018-05-02T20:56:47.530Z,2.10
2018-05-02T20:59:14.240Z,2.97
2018-05-02T21:01:40.916Z,2.40
2018-05-02T21:04:07.635Z,2.10
2018-05-02T21:06:34.325Z,2.53
2018-05-02T21:09:01.028Z,3.10
2018-05-02T21:11:27.720Z,3.30
2018-05-02T21:13:54.405Z,2.07
2018-05-02T21:16:21.116Z,2.17
2018-05-02T21:18:47.915Z,2.07
2018-05-02T21:21:14.639Z,2.13
2018-05-02T21:23:41.340Z,2.20
2018-05-02T21:26:08.046Z,2.30
2018-05-02T21:28:34.743Z,2.50
2018-05-02T21:31:01.516Z,2.50
2018-05-02T21:33:28.200Z,2.13
2018-05-02T21:35:54.879Z,2.40
2018-05-02T21:38:21.583Z,3.20
2018-05-02T21:40:48.330Z,3.00
2018-05-02T21:43:15.149Z,2.57
2018-05-02T21:45:41.831Z,2.60
2018-05-02T21:48:08.514Z,3.07
2018-05-02T21:50:35.189Z,2.60
2018-05-02T21:53:01.870Z,3.07
2018-05-02T21:55:28.576Z,2.67
2018-05-02T21:57:55.315Z,2.60
2018-05-02T22:00:22.019Z,2.47
2018-05-02T22:02:48.688Z,3.10
2018-05-02T22:05:15.435Z,2.77
2018-05-02T22:07:42.076Z,3.57
2018-05-02T22:10:08.876Z,3.00
2018-05-02T22:12:35.555Z,2.90
2018-05-02T22:15:02.299Z,2.50
2018-05-02T22:17:29.003Z,2.83
2018-05-02T22:19:55.689Z,3.13
2018-05-02T22:22:22.397Z,2.60
2018-05-02T22:24:49.060Z,2.60
2018-05-02T22:27:15.752Z,2.70
2018-05-02T22:29:42.454Z,2.87
2018-05-02T22:32:09.142Z,2.33
2018-05-02T22:34:35.955Z,2.80
2018-05-02T22:37:02.645Z,2.90
2018-05-02T22:39:29.345Z,2.57
2018-05-02T22:41:56.043Z,2.90
2018-05-02T22:44:22.728Z,2.80
2018-05-02T22:46:49.423Z,2.53
2018-05-02T22:49:16.090Z,2.70
2018-05-02T22:51:42.957Z,2.50
2018-05-02T22:54:09.632Z,2.07
2018-05-02T22:56:36.384Z,3.50
2018-05-02T22:59:03.063Z,3.63
2018-05-02T23:01:29.736Z,2.77
2018-05-02T23:03:56.423Z,3.03
2018-05-02T23:06:23.173Z,3.43
2018-05-02T23:08:49.872Z,2.87
2018-05-02T23:11:16.551Z,2.80
2018-05-02T23:13:43.284Z,2.83
2018-05-02T23:16:09.963Z,3.70
2018-05-02T23:18:36.668Z,3.70
2018-05-02T23:21:03.400Z,3.53
2018-05-02T23:23:30.103Z,3.63
2018-05-02T23:25:56.788Z,3.33
2018-05-02T23:28:23.500Z,3.17
2018-05-02T23:30:50.176Z,3.23
2018-05-02T23:33:16.847Z,3.37
2018-05-02T23:35:43.555Z,3.80
2018-05-02T23:38:10.249Z,3.60
2018-05-02T23:40:36.947Z,3.60
2018-05-02T23:43:03.620Z,4.03
2018-05-02T23:45:30.305Z,4.50
2018-05-02T23:47:57.003Z,4.40
2018-05-02T23:50:23.680Z,3.90
2018-05-02T23:52:50.504Z,3.50
2018-05-02T23:55:17.191Z,5.53
2018-05-02T23:57:43.868Z,6.00
